sensor_id;sensor_type;location;lat;lon;timestamp;P1;durP1;ratioP1;P2;durP2;ratioP2
70780;SDS011;59514;48.810;2.134;2022-12-18T00:00:46;44.75;;;26.38;;
70780;SDS011;59514;48.810;2.134;2022-12-18T00:03:12;46.28;;;26.35;;
70780;SDS011;59514;48.810;2.134;2022-12-18T00:05:45;39.83;;;24.58;;
70780;SDS011;59514;48.810;2.134;2022-12-18T00:08:12;41.20;;;25.95;;
70780;SDS011;59514;48.810;2.134;2022-12-18T00:10:37;38.45;;;24.23;;
70780;SDS011;59514;48.810;2.134;2022-12-18T00:13:03;39.80;;;25.02;;
70780;SDS011;59514;48.810;2.134;2022-12-18T00:15:28;42.83;;;25.10;;
70780;SDS011;59514;48.810;2.134;2022-12-18T00:17:53;40.97;;;25.73;;
70780;SDS011;59514;48.810;2.134;2022-12-18T00:20:18;40.85;;;25.48;;
70780;SDS011;59514;48.810;2.134;2022-12-18T00:22:50;43.30;;;25.42;;
70780;SDS011;59514;48.810;2.134;2022-12-18T00:25:15;41.80;;;24.58;;
70780;SDS011;59514;48.810;2.134;2022-12-18T00:27:41;42.40;;;25.02;;
70780;SDS011;59514;48.810;2.134;2022-12-18T00:30:06;42.47;;;24.08;;
70780;SDS011;59514;48.810;2.134;2022-12-18T00:32:32;42.60;;;24.65;;
70780;SDS011;59514;48.810;2.134;2022-12-18T00:34:57;43.63;;;25.35;;
70780;SDS011;59514;48.810;2.134;2022-12-18T00:37:23;39.13;;;24.75;;
70780;SDS011;59514;48.810;2.134;2022-12-18T00:39:48;39.78;;;23.73;;
70780;SDS011;59514;48.810;2.134;2022-12-18T00:42:14;38.47;;;24.67;;
70780;SDS011;59514;48.810;2.134;2022-12-18T00:44:58;36.30;;;23.15;;
70780;SDS011;59514;48.810;2.134;2022-12-18T00:47:23;37.88;;;23.83;;
70780;SDS011;59514;48.810;2.134;2022-12-18T00:49:48;41.63;;;24.58;;
70780;SDS011;59514;48.810;2.134;2022-12-18T00:52:14;38.58;;;23.48;;
70780;SDS011;59514;48.810;2.134;2022-12-18T00:54:39;37.63;;;23.85;;
70780;SDS011;59514;48.810;2.134;2022-12-18T00:57:04;37.55;;;24.38;;
70780;SDS011;59514;48.810;2.134;2022-12-18T00:59:29;36.65;;;23.25;;
70780;SDS011;59514;48.810;2.134;2022-12-18T01:01:55;36.90;;;23.90;;
70780;SDS011;59514;48.810;2.134;2022-12-18T01:04:20;39.15;;;23.88;;
70780;SDS011;59514;48.810;2.134;2022-12-18T01:06:46;37.15;;;23.40;;
70780;SDS011;59514;48.810;2.134;2022-12-18T01:09:11;36.58;;;23.92;;
70780;SDS011;59514;48.810;2.134;2022-12-18T01:11:36;36.55;;;24.75;;
70780;SDS011;59514;48.810;2.134;2022-12-18T01:14:02;37.47;;;24.50;;
70780;SDS011;59514;48.810;2.134;2022-12-18T01:16:27;36.53;;;24.05;;
70780;SDS011;59514;48.810;2.134;2022-12-18T01:18:53;34.83;;;23.08;;
70780;SDS011;59514;48.810;2.134;2022-12-18T01:21:19;37.55;;;22.88;;
70780;SDS011;59514;48.810;2.134;2022-12-18T01:23:46;35.90;;;22.67;;
70780;SDS011;59514;48.810;2.134;2022-12-18T01:26:13;32.72;;;21.90;;
70780;SDS011;59514;48.810;2.134;2022-12-18T01:28:40;35.30;;;22.15;;
70780;SDS011;59514;48.810;2.134;2022-12-18T01:31:14;33.97;;;22.30;;
70780;SDS011;59514;48.810;2.134;2022-12-18T01:33:42;31.67;;;22.13;;
70780;SDS011;59514;48.810;2.134;2022-12-18T01:36:08;34.42;;;22.85;;
70780;SDS011;59514;48.810;2.134;2022-12-18T01:38:39;34.90;;;23.30;;
70780;SDS011;59514;48.810;2.134;2022-12-18T01:41:05;34.25;;;22.17;;
70780;SDS011;59514;48.810;2.134;2022-12-18T01:43:40;33.92;;;23.02;;
70780;SDS011;59514;48.810;2.134;2022-12-18T01:46:09;33.15;;;21.73;;
70780;SDS011;59514;48.810;2.134;2022-12-18T01:48:34;31.42;;;20.67;;
70780;SDS011;59514;48.810;2.134;2022-12-18T01:51:00;33.70;;;21.95;;
70780;SDS011;59514;48.810;2.134;2022-12-18T01:53:25;35.22;;;23.23;;
70780;SDS011;59514;48.810;2.134;2022-12-18T01:55:52;28.52;;;19.77;;
70780;SDS011;59514;48.810;2.134;2022-12-18T01:58:20;27.85;;;19.67;;
70780;SDS011;59514;48.810;2.134;2022-12-18T02:00:55;29.92;;;20.75;;
70780;SDS011;59514;48.810;2.134;2022-12-18T02:03:20;29.70;;;20.23;;
70780;SDS011;59514;48.810;2.134;2022-12-18T02:08:32;27.73;;;20.27;;
70780;SDS011;59514;48.810;2.134;2022-12-18T02:11:10;27.92;;;19.80;;
70780;SDS011;59514;48.810;2.134;2022-12-18T02:17:01;28.10;;;19.58;;
70780;SDS011;59514;48.810;2.134;2022-12-18T02:22:36;29.17;;;20.65;;
70780;SDS011;59514;48.810;2.134;2022-12-18T02:28:14;30.00;;;20.25;;
70780;SDS011;59514;48.810;2.134;2022-12-18T02:30:43;28.33;;;20.00;;
70780;SDS011;59514;48.810;2.134;2022-12-18T02:33:12;28.08;;;19.52;;
70780;SDS011;59514;48.810;2.134;2022-12-18T02:35:39;27.55;;;19.50;;
70780;SDS011;59514;48.810;2.134;2022-12-18T02:38:06;28.40;;;19.33;;
70780;SDS011;59514;48.810;2.134;2022-12-18T02:40:31;27.38;;;18.90;;
70780;SDS011;59514;48.810;2.134;2022-12-18T02:43:07;26.60;;;18.98;;
70780;SDS011;59514;48.810;2.134;2022-12-18T02:45:46;29.80;;;18.85;;
70780;SDS011;59514;48.810;2.134;2022-12-18T02:48:13;27.80;;;19.58;;
70780;SDS011;59514;48.810;2.134;2022-12-18T02:50:41;29.15;;;19.65;;
70780;SDS011;59514;48.810;2.134;2022-12-18T02:53:33;26.45;;;19.08;;
70780;SDS011;59514;48.810;2.134;2022-12-18T03:03:39;29.30;;;19.83;;
70780;SDS011;59514;48.810;2.134;2022-12-18T03:06:25;25.45;;;19.08;;
70780;SDS011;59514;48.810;2.134;2022-12-18T03:08:58;25.70;;;18.42;;
70780;SDS011;59514;48.810;2.134;2022-12-18T03:11:28;25.45;;;19.00;;
70780;SDS011;59514;48.810;2.134;2022-12-18T03:14:17;27.58;;;19.23;;
70780;SDS011;59514;48.810;2.134;2022-12-18T03:16:45;27.50;;;19.42;;
70780;SDS011;59514;48.810;2.134;2022-12-18T03:19:18;28.45;;;21.08;;
70780;SDS011;59514;48.810;2.134;2022-12-18T03:21:52;26.13;;;18.58;;
70780;SDS011;59514;48.810;2.134;2022-12-18T03:24:20;31.00;;;20.23;;
70780;SDS011;59514;48.810;2.134;2022-12-18T03:26:49;31.05;;;20.42;;
70780;SDS011;59514;48.810;2.134;2022-12-18T03:29:22;26.48;;;19.30;;
70780;SDS011;59514;48.810;2.134;2022-12-18T03:31:53;27.92;;;19.17;;
70780;SDS011;59514;48.810;2.134;2022-12-18T03:34:23;27.40;;;19.50;;
70780;SDS011;59514;48.810;2.134;2022-12-18T03:36:54;25.58;;;19.80;;
70780;SDS011;59514;48.810;2.134;2022-12-18T03:39:19;29.50;;;20.25;;
70780;SDS011;59514;48.810;2.134;2022-12-18T03:47:30;27.58;;;18.92;;
70780;SDS011;59514;48.810;2.134;2022-12-18T03:52:50;29.77;;;19.58;;
70780;SDS011;59514;48.810;2.134;2022-12-18T03:55:21;29.45;;;20.02;;
70780;SDS011;59514;48.810;2.134;2022-12-18T03:57:48;31.05;;;20.95;;
70780;SDS011;59514;48.810;2.134;2022-12-18T04:00:17;27.60;;;20.35;;
70780;SDS011;59514;48.810;2.134;2022-12-18T04:02:50;28.42;;;19.52;;
70780;SDS011;59514;48.810;2.134;2022-12-18T04:05:19;29.30;;;20.67;;
70780;SDS011;59514;48.810;2.134;2022-12-18T04:07:46;30.38;;;20.90;;
70780;SDS011;59514;48.810;2.134;2022-12-18T04:10:13;31.58;;;22.35;;
70780;SDS011;59514;48.810;2.134;2022-12-18T04:12:41;29.75;;;20.42;;
70780;SDS011;59514;48.810;2.134;2022-12-18T04:15:07;31.38;;;21.77;;
70780;SDS011;59514;48.810;2.134;2022-12-18T04:17:33;29.13;;;20.65;;
70780;SDS011;59514;48.810;2.134;2022-12-18T04:19:58;31.20;;;22.33;;
70780;SDS011;59514;48.810;2.134;2022-12-18T04:22:24;29.13;;;20.48;;
70780;SDS011;59514;48.810;2.134;2022-12-18T04:24:49;31.52;;;22.23;;
70780;SDS011;59514;48.810;2.134;2022-12-18T04:27:14;34.95;;;22.33;;
70780;SDS011;59514;48.810;2.134;2022-12-18T04:29:40;32.00;;;21.75;;
70780;SDS011;59514;48.810;2.134;2022-12-18T04:32:05;29.20;;;20.80;;
70780;SDS011;59514;48.810;2.134;2022-12-18T04:34:31;28.58;;;19.92;;
70780;SDS011;59514;48.810;2.134;2022-12-18T04:36:57;28.52;;;20.05;;
70780;SDS011;59514;48.810;2.134;2022-12-18T04:39:22;31.50;;;20.77;;
70780;SDS011;59514;48.810;2.134;2022-12-18T04:41:47;31.73;;;21.40;;
70780;SDS011;59514;48.810;2.134;2022-12-18T04:44:13;30.38;;;21.48;;
70780;SDS011;59514;48.810;2.134;2022-12-18T04:46:38;31.27;;;21.35;;
70780;SDS011;59514;48.810;2.134;2022-12-18T04:49:03;29.10;;;20.65;;
70780;SDS011;59514;48.810;2.134;2022-12-18T04:51:29;29.48;;;19.60;;
70780;SDS011;59514;48.810;2.134;2022-12-18T04:53:54;30.05;;;20.98;;
70780;SDS011;59514;48.810;2.134;2022-12-18T04:56:19;29.95;;;22.05;;
70780;SDS011;59514;48.810;2.134;2022-12-18T04:58:45;31.33;;;22.13;;
70780;SDS011;59514;48.810;2.134;2022-12-18T05:01:11;28.48;;;20.65;;
70780;SDS011;59514;48.810;2.134;2022-12-18T05:03:38;29.90;;;20.95;;
70780;SDS011;59514;48.810;2.134;2022-12-18T05:06:04;30.60;;;21.73;;
70780;SDS011;59514;48.810;2.134;2022-12-18T05:08:30;28.13;;;20.35;;
70780;SDS011;59514;48.810;2.134;2022-12-18T05:10:59;26.80;;;20.48;;
70780;SDS011;59514;48.810;2.134;2022-12-18T05:13:25;27.33;;;19.17;;
70780;SDS011;59514;48.810;2.134;2022-12-18T05:15:51;31.40;;;21.80;;
70780;SDS011;59514;48.810;2.134;2022-12-18T05:18:17;26.90;;;19.55;;
70780;SDS011;59514;48.810;2.134;2022-12-18T05:20:43;29.65;;;19.60;;
70780;SDS011;59514;48.810;2.134;2022-12-18T05:23:08;30.02;;;20.20;;
70780;SDS011;59514;48.810;2.134;2022-12-18T05:25:34;29.88;;;20.42;;
70780;SDS011;59514;48.810;2.134;2022-12-18T05:28:00;29.92;;;20.30;;
70780;SDS011;59514;48.810;2.134;2022-12-18T05:30:25;29.48;;;20.58;;
70780;SDS011;59514;48.810;2.134;2022-12-18T05:32:51;29.35;;;20.50;;
70780;SDS011;59514;48.810;2.134;2022-12-18T05:35:16;31.45;;;20.60;;
70780;SDS011;59514;48.810;2.134;2022-12-18T05:37:41;28.83;;;20.35;;
70780;SDS011;59514;48.810;2.134;2022-12-18T05:40:07;28.88;;;20.33;;
70780;SDS011;59514;48.810;2.134;2022-12-18T05:42:33;29.75;;;20.67;;
70780;SDS011;59514;48.810;2.134;2022-12-18T05:44:58;28.13;;;19.60;;
70780;SDS011;59514;48.810;2.134;2022-12-18T05:47:23;30.05;;;20.35;;
70780;SDS011;59514;48.810;2.134;2022-12-18T05:49:49;27.10;;;19.27;;
70780;SDS011;59514;48.810;2.134;2022-12-18T05:52:14;28.33;;;20.48;;
70780;SDS011;59514;48.810;2.134;2022-12-18T05:54:39;28.30;;;19.85;;
70780;SDS011;59514;48.810;2.134;2022-12-18T05:57:05;28.42;;;19.92;;
70780;SDS011;59514;48.810;2.134;2022-12-18T05:59:30;30.05;;;21.08;;
70780;SDS011;59514;48.810;2.134;2022-12-18T06:01:56;31.83;;;21.55;;
70780;SDS011;59514;48.810;2.134;2022-12-18T06:04:21;26.23;;;19.13;;
70780;SDS011;59514;48.810;2.134;2022-12-18T06:06:46;28.05;;;20.13;;
70780;SDS011;59514;48.810;2.134;2022-12-18T06:09:12;29.23;;;19.85;;
70780;SDS011;59514;48.810;2.134;2022-12-18T06:11:37;25.92;;;19.30;;
70780;SDS011;59514;48.810;2.134;2022-12-18T06:14:04;29.83;;;20.58;;
70780;SDS011;59514;48.810;2.134;2022-12-18T06:16:31;28.05;;;20.45;;
70780;SDS011;59514;48.810;2.134;2022-12-18T06:18:57;28.23;;;19.67;;
70780;SDS011;59514;48.810;2.134;2022-12-18T06:21:26;26.67;;;18.58;;
70780;SDS011;59514;48.810;2.134;2022-12-18T06:23:52;29.15;;;19.83;;
70780;SDS011;59514;48.810;2.134;2022-12-18T06:26:17;29.27;;;19.38;;
70780;SDS011;59514;48.810;2.134;2022-12-18T06:28:43;29.33;;;20.33;;
70780;SDS011;59514;48.810;2.134;2022-12-18T06:31:08;24.95;;;18.65;;
70780;SDS011;59514;48.810;2.134;2022-12-18T06:33:35;27.98;;;19.30;;
70780;SDS011;59514;48.810;2.134;2022-12-18T06:36:01;29.80;;;20.02;;
70780;SDS011;59514;48.810;2.134;2022-12-18T06:38:28;26.77;;;19.15;;
70780;SDS011;59514;48.810;2.134;2022-12-18T06:40:54;28.13;;;19.10;;
70780;SDS011;59514;48.810;2.134;2022-12-18T06:43:19;29.08;;;19.88;;
70780;SDS011;59514;48.810;2.134;2022-12-18T06:45:44;28.95;;;20.05;;
70780;SDS011;59514;48.810;2.134;2022-12-18T06:48:11;31.00;;;20.13;;
70780;SDS011;59514;48.810;2.134;2022-12-18T06:50:36;28.88;;;20.08;;
70780;SDS011;59514;48.810;2.134;2022-12-18T06:53:01;28.95;;;19.15;;
70780;SDS011;59514;48.810;2.134;2022-12-18T06:55:27;26.63;;;18.67;;
70780;SDS011;59514;48.810;2.134;2022-12-18T06:57:52;30.23;;;19.45;;
70780;SDS011;59514;48.810;2.134;2022-12-18T07:00:17;28.60;;;20.00;;
70780;SDS011;59514;48.810;2.134;2022-12-18T07:02:43;28.08;;;19.75;;
70780;SDS011;59514;48.810;2.134;2022-12-18T07:05:08;29.33;;;20.42;;
70780;SDS011;59514;48.810;2.134;2022-12-18T07:07:34;29.13;;;20.33;;
70780;SDS011;59514;48.810;2.134;2022-12-18T07:10:00;27.58;;;18.98;;
70780;SDS011;59514;48.810;2.134;2022-12-18T07:12:26;26.67;;;18.63;;
70780;SDS011;59514;48.810;2.134;2022-12-18T07:14:52;29.88;;;20.08;;
70780;SDS011;59514;48.810;2.134;2022-12-18T07:17:17;28.13;;;19.23;;
70780;SDS011;59514;48.810;2.134;2022-12-18T07:19:42;26.58;;;19.50;;
70780;SDS011;59514;48.810;2.134;2022-12-18T07:22:07;30.42;;;20.27;;
70780;SDS011;59514;48.810;2.134;2022-12-18T07:24:33;26.98;;;19.52;;
70780;SDS011;59514;48.810;2.134;2022-12-18T07:26:59;27.02;;;20.02;;
70780;SDS011;59514;48.810;2.134;2022-12-18T07:29:24;27.77;;;19.98;;
70780;SDS011;59514;48.810;2.134;2022-12-18T07:31:50;27.35;;;19.58;;
70780;SDS011;59514;48.810;2.134;2022-12-18T07:34:16;29.90;;;19.27;;
70780;SDS011;59514;48.810;2.134;2022-12-18T07:36:41;27.10;;;19.67;;
70780;SDS011;59514;48.810;2.134;2022-12-18T07:39:06;27.40;;;20.08;;
70780;SDS011;59514;48.810;2.134;2022-12-18T07:41:32;30.23;;;20.27;;
70780;SDS011;59514;48.810;2.134;2022-12-18T07:43:58;30.10;;;18.85;;
70780;SDS011;59514;48.810;2.134;2022-12-18T07:46:23;27.80;;;19.80;;
70780;SDS011;59514;48.810;2.134;2022-12-18T07:48:48;28.15;;;19.65;;
70780;SDS011;59514;48.810;2.134;2022-12-18T07:51:14;28.95;;;19.42;;
70780;SDS011;59514;48.810;2.134;2022-12-18T07:53:39;30.25;;;19.65;;
70780;SDS011;59514;48.810;2.134;2022-12-18T07:56:06;26.55;;;18.70;;
70780;SDS011;59514;48.810;2.134;2022-12-18T07:58:33;25.98;;;19.27;;
70780;SDS011;59514;48.810;2.134;2022-12-18T08:01:03;25.95;;;19.65;;
70780;SDS011;59514;48.810;2.134;2022-12-18T08:03:29;26.48;;;19.33;;
70780;SDS011;59514;48.810;2.134;2022-12-18T08:05:58;29.08;;;20.45;;
70780;SDS011;59514;48.810;2.134;2022-12-18T08:08:27;31.92;;;20.27;;
70780;SDS011;59514;48.810;2.134;2022-12-18T08:10:53;29.60;;;19.50;;
70780;SDS011;59514;48.810;2.134;2022-12-18T08:13:19;25.88;;;19.80;;
70780;SDS011;59514;48.810;2.134;2022-12-18T08:15:44;26.90;;;18.95;;
70780;SDS011;59514;48.810;2.134;2022-12-18T08:18:09;27.92;;;19.48;;
70780;SDS011;59514;48.810;2.134;2022-12-18T08:20:35;28.08;;;20.38;;
70780;SDS011;59514;48.810;2.134;2022-12-18T08:23:00;29.48;;;20.27;;
70780;SDS011;59514;48.810;2.134;2022-12-18T08:25:25;31.05;;;20.20;;
70780;SDS011;59514;48.810;2.134;2022-12-18T08:27:50;28.63;;;19.70;;
70780;SDS011;59514;48.810;2.134;2022-12-18T08:30:16;29.00;;;19.58;;
70780;SDS011;59514;48.810;2.134;2022-12-18T08:32:41;27.30;;;20.10;;
70780;SDS011;59514;48.810;2.134;2022-12-18T08:35:07;26.90;;;19.25;;
70780;SDS011;59514;48.810;2.134;2022-12-18T08:37:33;27.63;;;20.02;;
70780;SDS011;59514;48.810;2.134;2022-12-18T08:39:58;28.63;;;19.15;;
70780;SDS011;59514;48.810;2.134;2022-12-18T08:42:24;29.83;;;19.55;;
70780;SDS011;59514;48.810;2.134;2022-12-18T08:45:07;25.27;;;19.30;;
70780;SDS011;59514;48.810;2.134;2022-12-18T08:47:33;28.88;;;20.02;;
70780;SDS011;59514;48.810;2.134;2022-12-18T08:49:58;29.17;;;19.88;;
70780;SDS011;59514;48.810;2.134;2022-12-18T08:52:24;28.90;;;20.75;;
70780;SDS011;59514;48.810;2.134;2022-12-18T08:54:49;29.00;;;20.58;;
70780;SDS011;59514;48.810;2.134;2022-12-18T08:57:14;33.33;;;21.45;;
70780;SDS011;59514;48.810;2.134;2022-12-18T08:59:40;29.45;;;20.33;;
70780;SDS011;59514;48.810;2.134;2022-12-18T09:02:05;29.92;;;20.13;;
70780;SDS011;59514;48.810;2.134;2022-12-18T09:04:30;29.13;;;20.70;;
70780;SDS011;59514;48.810;2.134;2022-12-18T09:06:56;28.77;;;20.88;;
70780;SDS011;59514;48.810;2.134;2022-12-18T09:09:21;30.33;;;20.73;;
70780;SDS011;59514;48.810;2.134;2022-12-18T09:11:46;29.92;;;20.13;;
70780;SDS011;59514;48.810;2.134;2022-12-18T09:14:12;28.30;;;20.13;;
70780;SDS011;59514;48.810;2.134;2022-12-18T09:16:37;27.70;;;20.65;;
70780;SDS011;59514;48.810;2.134;2022-12-18T09:19:03;28.05;;;19.38;;
70780;SDS011;59514;48.810;2.134;2022-12-18T09:21:30;27.80;;;20.65;;
70780;SDS011;59514;48.810;2.134;2022-12-18T09:23:57;26.95;;;19.48;;
70780;SDS011;59514;48.810;2.134;2022-12-18T09:26:24;26.88;;;19.55;;
70780;SDS011;59514;48.810;2.134;2022-12-18T09:28:50;29.42;;;19.45;;
70780;SDS011;59514;48.810;2.134;2022-12-18T09:31:16;31.48;;;20.98;;
70780;SDS011;59514;48.810;2.134;2022-12-18T09:33:45;28.25;;;19.35;;
70780;SDS011;59514;48.810;2.134;2022-12-18T09:36:11;31.95;;;21.45;;
70780;SDS011;59514;48.810;2.134;2022-12-18T09:38:38;28.02;;;20.73;;
70780;SDS011;59514;48.810;2.134;2022-12-18T09:46:40;30.42;;;20.42;;
70780;SDS011;59514;48.810;2.134;2022-12-18T09:49:11;27.70;;;20.38;;
70780;SDS011;59514;48.810;2.134;2022-12-18T09:51:41;30.30;;;21.00;;
70780;SDS011;59514;48.810;2.134;2022-12-18T09:54:14;27.48;;;19.70;;
70780;SDS011;59514;48.810;2.134;2022-12-18T09:59:23;27.38;;;20.05;;
70780;SDS011;59514;48.810;2.134;2022-12-18T10:01:51;31.73;;;21.50;;
70780;SDS011;59514;48.810;2.134;2022-12-18T10:04:17;29.33;;;21.05;;
70780;SDS011;59514;48.810;2.134;2022-12-18T10:06:46;27.73;;;20.25;;
70780;SDS011;59514;48.810;2.134;2022-12-18T10:09:18;29.63;;;19.55;;
70780;SDS011;59514;48.810;2.134;2022-12-18T10:20:16;32.67;;;21.27;;
70780;SDS011;59514;48.810;2.134;2022-12-18T10:22:57;29.38;;;19.70;;
70780;SDS011;59514;48.810;2.134;2022-12-18T10:25:31;29.55;;;21.20;;
70780;SDS011;59514;48.810;2.134;2022-12-18T10:28:14;29.98;;;20.92;;
70780;SDS011;59514;48.810;2.134;2022-12-18T10:30:42;30.02;;;20.13;;
70780;SDS011;59514;48.810;2.134;2022-12-18T10:33:19;28.08;;;20.45;;
70780;SDS011;59514;48.810;2.134;2022-12-18T10:35:46;30.73;;;21.33;;
70780;SDS011;59514;48.810;2.134;2022-12-18T10:40:59;28.75;;;21.10;;
70780;SDS011;59514;48.810;2.134;2022-12-18T10:46:44;28.80;;;20.23;;
70780;SDS011;59514;48.810;2.134;2022-12-18T10:49:27;29.65;;;22.00;;
70780;SDS011;59514;48.810;2.134;2022-12-18T10:52:11;32.72;;;21.63;;
70780;SDS011;59514;48.810;2.134;2022-12-18T10:54:46;31.80;;;21.83;;
70780;SDS011;59514;48.810;2.134;2022-12-18T10:57:35;29.42;;;21.13;;
70780;SDS011;59514;48.810;2.134;2022-12-18T11:00:20;30.85;;;20.83;;
70780;SDS011;59514;48.810;2.134;2022-12-18T11:02:50;31.30;;;21.38;;
70780;SDS011;59514;48.810;2.134;2022-12-18T11:07:55;30.25;;;21.02;;
70780;SDS011;59514;48.810;2.134;2022-12-18T11:10:39;30.25;;;21.08;;
70780;SDS011;59514;48.810;2.134;2022-12-18T11:13:21;33.67;;;21.67;;
70780;SDS011;59514;48.810;2.134;2022-12-18T11:15:49;31.75;;;21.60;;
70780;SDS011;59514;48.810;2.134;2022-12-18T11:18:20;32.75;;;21.58;;
70780;SDS011;59514;48.810;2.134;2022-12-18T11:21:28;30.90;;;20.85;;
70780;SDS011;59514;48.810;2.134;2022-12-18T11:23:47;30.80;;;20.27;;
70780;SDS011;59514;48.810;2.134;2022-12-18T11:26:15;29.25;;;20.85;;
70780;SDS011;59514;48.810;2.134;2022-12-18T11:28:46;31.45;;;22.60;;
70780;SDS011;59514;48.810;2.134;2022-12-18T11:31:18;29.13;;;21.55;;
70780;SDS011;59514;48.810;2.134;2022-12-18T11:33:51;29.23;;;21.42;;
70780;SDS011;59514;48.810;2.134;2022-12-18T11:36:34;35.78;;;23.40;;
70780;SDS011;59514;48.810;2.134;2022-12-18T11:39:07;31.58;;;21.67;;
70780;SDS011;59514;48.810;2.134;2022-12-18T11:41:41;27.60;;;21.90;;
70780;SDS011;59514;48.810;2.134;2022-12-18T11:44:49;29.88;;;20.77;;
70780;SDS011;59514;48.810;2.134;2022-12-18T11:50:34;32.15;;;22.40;;
70780;SDS011;59514;48.810;2.134;2022-12-18T11:53:15;28.02;;;20.77;;
70780;SDS011;59514;48.810;2.134;2022-12-18T12:06:45;29.52;;;21.25;;
70780;SDS011;59514;48.810;2.134;2022-12-18T12:12:24;32.78;;;22.45;;
70780;SDS011;59514;48.810;2.134;2022-12-18T12:20:42;29.48;;;21.35;;
70780;SDS011;59514;48.810;2.134;2022-12-18T12:26:12;29.83;;;21.25;;
70780;SDS011;59514;48.810;2.134;2022-12-18T12:31:53;28.30;;;22.00;;
70780;SDS011;59514;48.810;2.134;2022-12-18T12:34:59;28.30;;;21.15;;
70780;SDS011;59514;48.810;2.134;2022-12-18T12:37:43;28.73;;;21.42;;
70780;SDS011;59514;48.810;2.134;2022-12-18T12:40:27;29.95;;;20.38;;
70780;SDS011;59514;48.810;2.134;2022-12-18T12:42:58;29.33;;;20.08;;
70780;SDS011;59514;48.810;2.134;2022-12-18T12:48:31;28.63;;;20.20;;
70780;SDS011;59514;48.810;2.134;2022-12-18T12:51:08;23.90;;;19.13;;
70780;SDS011;59514;48.810;2.134;2022-12-18T12:53:39;33.38;;;22.00;;
70780;SDS011;59514;48.810;2.134;2022-12-18T12:56:06;30.45;;;21.98;;
70780;SDS011;59514;48.810;2.134;2022-12-18T13:03:52;31.95;;;21.75;;
70780;SDS011;59514;48.810;2.134;2022-12-18T13:08:59;28.15;;;21.15;;
70780;SDS011;59514;48.810;2.134;2022-12-18T13:14:30;31.75;;;21.58;;
70780;SDS011;59514;48.810;2.134;2022-12-18T13:17:14;29.83;;;22.55;;
70780;SDS011;59514;48.810;2.134;2022-12-18T13:20:14;30.83;;;21.65;;
70780;SDS011;59514;48.810;2.134;2022-12-18T13:22:48;33.17;;;23.10;;
70780;SDS011;59514;48.810;2.134;2022-12-18T13:25:31;34.53;;;25.05;;
70780;SDS011;59514;48.810;2.134;2022-12-18T13:30:58;29.00;;;21.48;;
70780;SDS011;59514;48.810;2.134;2022-12-18T13:35:51;28.70;;;22.20;;
70780;SDS011;59514;48.810;2.134;2022-12-18T13:45:48;29.92;;;20.35;;
70780;SDS011;59514;48.810;2.134;2022-12-18T13:48:19;26.80;;;20.10;;
70780;SDS011;59514;48.810;2.134;2022-12-18T13:53:48;27.02;;;18.83;;
70780;SDS011;59514;48.810;2.134;2022-12-18T13:56:26;26.92;;;20.08;;
70780;SDS011;59514;48.810;2.134;2022-12-18T13:59:03;25.70;;;19.95;;
70780;SDS011;59514;48.810;2.134;2022-12-18T14:01:36;27.95;;;21.30;;
70780;SDS011;59514;48.810;2.134;2022-12-18T14:04:18;29.77;;;21.33;;
70780;SDS011;59514;48.810;2.134;2022-12-18T14:09:40;27.55;;;20.85;;
70780;SDS011;59514;48.810;2.134;2022-12-18T14:12:16;27.27;;;20.67;;
70780;SDS011;59514;48.810;2.134;2022-12-18T14:17:50;25.10;;;19.70;;
70780;SDS011;59514;48.810;2.134;2022-12-18T14:20:36;27.77;;;20.17;;
70780;SDS011;59514;48.810;2.134;2022-12-18T14:23:04;29.20;;;19.30;;
70780;SDS011;59514;48.810;2.134;2022-12-18T14:25:30;24.27;;;18.20;;
70780;SDS011;59514;48.810;2.134;2022-12-18T14:30:43;25.25;;;18.85;;
70780;SDS011;59514;48.810;2.134;2022-12-18T14:33:12;24.10;;;18.98;;
70780;SDS011;59514;48.810;2.134;2022-12-18T14:41:03;28.33;;;20.50;;
70780;SDS011;59514;48.810;2.134;2022-12-18T14:43:37;59.17;;;42.45;;
70780;SDS011;59514;48.810;2.134;2022-12-18T14:46:05;40.78;;;31.95;;
70780;SDS011;59514;48.810;2.134;2022-12-18T14:48:51;27.15;;;20.92;;
70780;SDS011;59514;48.810;2.134;2022-12-18T14:51:21;25.67;;;19.60;;
70780;SDS011;59514;48.810;2.134;2022-12-18T14:53:49;25.63;;;19.33;;
70780;SDS011;59514;48.810;2.134;2022-12-18T14:56:25;25.92;;;19.80;;
70780;SDS011;59514;48.810;2.134;2022-12-18T14:59:02;29.23;;;20.10;;
70780;SDS011;59514;48.810;2.134;2022-12-18T15:03:58;26.00;;;19.80;;
70780;SDS011;59514;48.810;2.134;2022-12-18T15:08:55;26.27;;;19.00;;
70780;SDS011;59514;48.810;2.134;2022-12-18T15:11:55;27.38;;;19.80;;
70780;SDS011;59514;48.810;2.134;2022-12-18T15:14:30;25.95;;;19.15;;
70780;SDS011;59514;48.810;2.134;2022-12-18T15:17:05;25.70;;;19.98;;
70780;SDS011;59514;48.810;2.134;2022-12-18T15:19:40;25.90;;;19.55;;
70780;SDS011;59514;48.810;2.134;2022-12-18T15:22:21;27.38;;;19.38;;
70780;SDS011;59514;48.810;2.134;2022-12-18T15:24:49;26.75;;;19.38;;
70780;SDS011;59514;48.810;2.134;2022-12-18T15:27:34;26.02;;;19.70;;
70780;SDS011;59514;48.810;2.134;2022-12-18T15:32:34;27.98;;;19.58;;
70780;SDS011;59514;48.810;2.134;2022-12-18T15:37:34;27.35;;;19.83;;
70780;SDS011;59514;48.810;2.134;2022-12-18T15:40:00;26.17;;;19.98;;
70780;SDS011;59514;48.810;2.134;2022-12-18T15:42:27;23.58;;;18.42;;
70780;SDS011;59514;48.810;2.134;2022-12-18T15:45:12;25.48;;;18.42;;
70780;SDS011;59514;48.810;2.134;2022-12-18T15:47:38;28.83;;;20.50;;
70780;SDS011;59514;48.810;2.134;2022-12-18T15:50:04;25.75;;;18.92;;
70780;SDS011;59514;48.810;2.134;2022-12-18T15:52:31;25.52;;;19.05;;
70780;SDS011;59514;48.810;2.134;2022-12-18T15:55:08;27.23;;;19.48;;
70780;SDS011;59514;48.810;2.134;2022-12-18T15:57:55;24.67;;;18.42;;
70780;SDS011;59514;48.810;2.134;2022-12-18T16:00:20;25.30;;;18.20;;
70780;SDS011;59514;48.810;2.134;2022-12-18T16:02:46;22.95;;;18.30;;
70780;SDS011;59514;48.810;2.134;2022-12-18T16:05:13;29.80;;;20.13;;
70780;SDS011;59514;48.810;2.134;2022-12-18T16:07:40;23.65;;;18.75;;
70780;SDS011;59514;48.810;2.134;2022-12-18T16:10:05;22.33;;;17.60;;
70780;SDS011;59514;48.810;2.134;2022-12-18T16:12:31;28.17;;;19.00;;
70780;SDS011;59514;48.810;2.134;2022-12-18T16:14:57;24.33;;;18.17;;
70780;SDS011;59514;48.810;2.134;2022-12-18T16:17:22;26.77;;;19.35;;
70780;SDS011;59514;48.810;2.134;2022-12-18T16:19:47;23.65;;;18.40;;
70780;SDS011;59514;48.810;2.134;2022-12-18T16:22:20;27.35;;;19.45;;
70780;SDS011;59514;48.810;2.134;2022-12-18T16:24:50;26.73;;;21.58;;
70780;SDS011;59514;48.810;2.134;2022-12-18T16:27:17;29.05;;;20.73;;
70780;SDS011;59514;48.810;2.134;2022-12-18T16:29:43;23.88;;;19.95;;
70780;SDS011;59514;48.810;2.134;2022-12-18T16:32:11;29.15;;;22.52;;
70780;SDS011;59514;48.810;2.134;2022-12-18T16:34:38;30.00;;;22.17;;
70780;SDS011;59514;48.810;2.134;2022-12-18T16:37:05;26.50;;;19.42;;
70780;SDS011;59514;48.810;2.134;2022-12-18T16:39:33;25.17;;;18.63;;
70780;SDS011;59514;48.810;2.134;2022-12-18T16:41:59;32.15;;;23.17;;
70780;SDS011;59514;48.810;2.134;2022-12-18T16:44:26;46.30;;;34.35;;
70780;SDS011;59514;48.810;2.134;2022-12-18T16:46:51;29.30;;;21.65;;
70780;SDS011;59514;48.810;2.134;2022-12-18T16:49:17;36.92;;;29.95;;